| time (UTC) | temp F | wind direction | speed knots | gust knots | rain 1hr in | rain 24hr in | rain mn in | humidity % | barometer mb |
| 20260508115619 | 47 | 131 | 1.7 | 2.6 | 0.00 | 0.03 | 0.03 | 87 | 1013.7 |
| 20260508115116 | 46 | 286 | 0.9 | 0.9 | 0.00 | 0.03 | 0.03 | 89 | 1013.7 |
| 20260508114613 | 46 | 275 | 0.0 | 0.0 | 0.00 | 0.03 | 0.03 | 92 | 1014.0 |
| 20260508114108 | 45 | 323 | 0.0 | 0.0 | 0.00 | 0.03 | 0.03 | 95 | 1013.9 |
| 20260508113606 | 45 | 325 | 0.0 | 0.0 | 0.00 | 0.03 | 0.03 | 96 | 1014.0 |
| 20260508113105 | 44 | 315 | 0.0 | 0.0 | 0.00 | 0.03 | 0.03 | 96 | 1013.8 |
| 20260508112600 | 44 | 326 | 0.0 | 0.0 | 0.00 | 0.03 | 0.03 | 97 | 1013.8 |
| 20260508112057 | 44 | 326 | 0.0 | 0.0 | 0.00 | 0.03 | 0.03 | 97 | 1013.6 |
| 20260508111554 | 44 | 326 | 0.0 | 0.0 | 0.00 | 0.03 | 0.03 | 97 | 1014.1 |
| 20260508111051 | 44 | 326 | 0.0 | 0.0 | 0.00 | 0.03 | 0.03 | 97 | 1013.8 |
| 20260508110549 | 44 | 326 | 0.0 | 0.0 | 0.00 | 0.03 | 0.03 | 97 | 1013.7 |
| 20260508110044 | 44 | 326 | 0.0 | 0.0 | 0.00 | 0.03 | 0.03 | 97 | 1013.7 |
| 20260508105539 | 44 | 326 | 0.0 | 0.9 | 0.00 | 0.03 | 0.03 | 97 | 1013.6 |
| 20260508105037 | 44 | 326 | 0.0 | 0.0 | 0.00 | 0.03 | 0.03 | 97 | 1013.9 |
| 20260508104535 | 44 | 325 | 0.0 | 0.0 | 0.00 | 0.03 | 0.03 | 97 | 1013.7 |
| 20260508104031 | 44 | 325 | 0.0 | 0.0 | 0.00 | 0.03 | 0.03 | 97 | 1013.7 |
| 20260508103528 | 44 | 325 | 0.0 | 0.0 | 0.00 | 0.03 | 0.03 | 97 | 1013.9 |
| 20260508103026 | 44 | 325 | 0.0 | 0.0 | 0.00 | 0.03 | 0.03 | 96 | 1013.8 |
| 20260508102523 | 44 | 325 | 0.0 | 0.0 | 0.00 | 0.03 | 0.03 | 96 | 1014.0 |
| 20260508102021 | 44 | 326 | 0.0 | 0.0 | 0.00 | 0.03 | 0.03 | 96 | 1013.9 |
| 20260508101518 | 44 | 326 | 0.0 | 0.0 | 0.07 | 0.03 | 0.03 | 95 | 1013.8 |
| 20260508101015 | 44 | 2 | 0.0 | 0.0 | 0.07 | 0.03 | 0.03 | 95 | 1013.7 |
| 20260508100513 | 44 | 318 | 0.9 | 0.9 | 0.00 | 0.02 | 0.02 | 95 | 1013.6 |
| 20260508100010 | 44 | 294 | 0.9 | 0.9 | 0.00 | 0.02 | 0.02 | 95 | 1013.7 |
| 20260508095507 | 44 | 299 | 0.0 | 0.0 | 0.00 | 0.02 | 0.02 | 95 | 1013.6 |
| 20260508095003 | 44 | 299 | 0.0 | 0.0 | 0.00 | 0.02 | 0.02 | 94 | 1013.3 |
| 20260508094501 | 44 | 299 | 0.0 | 0.0 | 0.00 | 0.02 | 0.02 | 94 | 1013.5 |
| 20260508093957 | 44 | 299 | 0.0 | 0.0 | 0.00 | 0.02 | 0.02 | 93 | 1013.4 |
| 20260508093454 | 44 | 299 | 0.0 | 0.0 | 0.00 | 0.02 | 0.02 | 93 | 1013.6 |
| 20260508092952 | 44 | 299 | 0.0 | 0.0 | 0.00 | 0.02 | 0.02 | 92 | 1013.5 |
| 20260508092449 | 44 | 299 | 0.0 | 0.0 | 0.00 | 0.02 | 0.02 | 92 | 1013.6 |
| 20260508091948 | 45 | 298 | 0.0 | 0.0 | 0.00 | 0.02 | 0.02 | 92 | 1013.3 |
| 20260508091444 | 45 | 273 | 0.0 | 0.0 | 0.00 | 0.02 | 0.02 | 91 | 1013.7 |
| 20260508090942 | 45 | 273 | 0.0 | 0.0 | 0.00 | 0.02 | 0.02 | 90 | 1013.8 |
| 20260508090440 | 46 | 273 | 0.0 | 0.0 | 0.00 | 0.02 | 0.02 | 90 | 1014.0 |
| 20260508085935 | 46 | 271 | 0.0 | 0.0 | 0.00 | 0.02 | 0.02 | 88 | 1013.8 |
| 20260508085427 | 46 | 316 | 0.0 | 0.0 | 0.00 | 0.02 | 0.02 | 89 | 1013.9 |
| 20260508084923 | 46 | 296 | 0.0 | 0.0 | 0.00 | 0.02 | 0.02 | 88 | 1013.9 |
| 20260508084419 | 46 | 290 | 0.0 | 0.9 | 0.05 | 0.02 | 0.02 | 88 | 1014.1 |
| 20260508083918 | 47 | 316 | 0.0 | 0.0 | 0.05 | 0.02 | 0.02 | 87 | 1014.1 |
| 20260508083415 | 47 | 270 | 0.9 | 1.7 | 0.00 | 0.01 | 0.01 | 82 | 1014.1 |
| 20260508082914 | 46 | 294 | 0.9 | 1.7 | 0.00 | 0.01 | 0.01 | 84 | 1013.8 |
| 20260508082412 | 46 | 299 | 0.0 | 0.0 | 0.00 | 0.01 | 0.01 | 85 | 1013.9 |
| 20260508081910 | 46 | 10 | 0.0 | 0.0 | 0.00 | 0.01 | 0.01 | 84 | 1013.5 |
| 20260508081406 | 46 | 289 | 0.9 | 0.9 | 0.00 | 0.01 | 0.01 | 84 | 1013.4 |
| 20260508080902 | 45 | 298 | 0.9 | 0.9 | 0.00 | 0.01 | 0.01 | 86 | 1013.9 |
| 20260508080401 | 45 | 290 | 0.0 | 0.0 | 0.00 | 0.01 | 0.01 | 86 | 1013.8 |
| 20260508075857 | 45 | 289 | 0.9 | 0.9 | 0.00 | 0.01 | 0.01 | 85 | 1013.8 |
| 20260508075354 | 45 | 298 | 0.0 | 0.0 | 0.00 | 0.01 | 0.01 | 87 | 1013.8 |
| 20260508074852 | 45 | 321 | 0.0 | 0.0 | 0.00 | 0.01 | 0.01 | 88 | 1013.7 |
| 20260508074348 | 45 | 241 | 0.0 | 0.9 | 0.00 | 0.01 | 0.01 | 86 | 1013.8 |
| 20260508073846 | 45 | 274 | 0.0 | 0.0 | 0.00 | 0.01 | 0.01 | 87 | 1013.7 |
| 20260508073344 | 45 | 274 | 0.0 | 0.0 | 0.00 | 0.01 | 0.01 | 87 | 1013.7 |
| 20260508072840 | 45 | 274 | 0.0 | 0.0 | 0.00 | 0.01 | 0.01 | 87 | 1013.9 |
| 20260508072336 | 45 | 289 | 0.0 | 0.9 | 0.00 | 0.01 | 0.01 | 86 | 1014.1 |
| 20260508071834 | 46 | 289 | 0.0 | 0.0 | 0.00 | 0.01 | 0.01 | 85 | 1013.8 |
| 20260508071332 | 46 | 283 | 0.0 | 0.9 | 0.00 | 0.01 | 0.01 | 84 | 1014.0 |
| 20260508070830 | 46 | 289 | 0.0 | 0.0 | 0.00 | 0.01 | 0.01 | 86 | 1014.2 |
| 20260508070328 | 46 | 264 | 0.0 | 0.0 | 0.00 | 0.01 | 0.01 | 86 | 1014.1 |
| 20260508065825 | 46 | 299 | 0.0 | 0.0 | 0.00 | 0.01 | 0.01 | 86 | 1014.4 |
| 20260508065323 | 46 | 290 | 0.0 | 0.0 | 0.00 | 0.01 | 0.01 | 86 | 1014.3 |
| 20260508064820 | 47 | 289 | 0.0 | 0.0 | 0.00 | 0.01 | 0.01 | 85 | 1014.2 |
| 20260508064318 | 47 | 284 | 0.9 | 0.9 | 0.00 | 0.01 | 0.01 | 83 | 1014.1 |
| 20260508063815 | 47 | 316 | 0.0 | 0.0 | 0.07 | 0.01 | 0.01 | 84 | 1014.4 |
| 20260508063313 | 47 | 288 | 1.7 | 2.6 | 0.07 | 0.01 | 0.01 | 85 | 1014.4 |
| 20260508062810 | 47 | 272 | 0.0 | 0.0 | 0.00 | 0.00 | 0.00 | 83 | 1014.6 |
| 20260508062308 | 47 | 315 | 0.0 | 0.0 | 0.00 | 0.00 | 0.00 | 84 | 1014.5 |
| 20260508061804 | 47 | 299 | 0.0 | 0.0 | 0.00 | 0.00 | 0.00 | 82 | 1014.3 |
| 20260508061301 | 47 | 301 | 0.9 | 1.7 | 0.00 | 0.00 | 0.00 | 81 | 1014.3 |
| 20260508060758 | 47 | 267 | 2.6 | 5.2 | 0.00 | 0.00 | 0.00 | 78 | 1014.6 |
| 20260508060256 | 47 | 323 | 0.0 | 0.0 | 0.00 | 0.00 | 0.00 | 81 | 1014.4 |
| 20260508055751 | 47 | 343 | 1.7 | 1.7 | 0.00 | 0.00 | 0.00 | 81 | 1014.6 |
| 20260508055248 | 46 | 271 | 1.7 | 2.6 | 0.00 | 0.00 | 0.00 | 84 | 1014.4 |
| 20260508054744 | 46 | 297 | 0.0 | 0.0 | 0.00 | 0.00 | 0.00 | 86 | 1014.5 |
| 20260508054243 | 45 | 328 | 0.0 | 0.0 | 0.00 | 0.00 | 0.00 | 88 | 1014.4 |
| 20260508053740 | 45 | 329 | 0.0 | 0.0 | 0.00 | 0.00 | 0.00 | 89 | 1014.4 |
| 20260508053237 | 45 | 329 | 0.0 | 0.0 | 0.00 | 0.00 | 0.00 | 89 | 1014.4 |
| 20260508052734 | 46 | 328 | 0.0 | 0.0 | 0.00 | 0.00 | 0.00 | 88 | 1014.7 |
| 20260508052231 | 46 | 328 | 0.0 | 0.0 | 0.00 | 0.00 | 0.00 | 87 | 1014.7 |
| 20260508051727 | 46 | 328 | 0.0 | 0.0 | 0.00 | 0.00 | 0.00 | 86 | 1014.6 |
| 20260508051223 | 46 | 328 | 0.0 | 0.0 | 0.00 | 0.00 | 0.00 | 84 | 1014.6 |
| 20260508050719 | 46 | 328 | 0.0 | 0.0 | 0.00 | 0.00 | 0.00 | 84 | 1014.7 |
| 20260508050218 | 47 | 329 | 0.0 | 0.0 | 0.00 | 0.00 | 0.00 | 80 | 1014.7 |
| 20260508045718 | 46 | 328 | 0.0 | 0.0 | 0.00 | 0.00 | 0.00 | 79 | 1014.8 |
| 20260508045216 | 46 | 328 | 0.0 | 0.0 | 0.00 | 0.00 | 0.00 | 77 | 1014.7 |
| 20260508044713 | 47 | 328 | 0.0 | 0.0 | 0.00 | 0.00 | 0.00 | 78 | 1014.6 |
| 20260508044210 | 47 | 329 | 0.0 | 0.0 | 0.00 | 0.00 | 0.00 | 79 | 1014.4 |
| 20260508043705 | 46 | 328 | 0.0 | 0.0 | 0.00 | 0.00 | 0.00 | 78 | 1014.5 |
| 20260508043204 | 47 | 328 | 0.0 | 0.0 | 0.00 | 0.00 | 0.00 | 79 | 1014.4 |
| 20260508042700 | 47 | 328 | 0.0 | 0.0 | 0.00 | 0.00 | 0.00 | 79 | 1014.5 |
| 20260508042157 | 46 | 328 | 0.0 | 0.0 | 0.00 | 0.00 | 0.00 | 74 | 1014.3 |
| 20260508041653 | 46 | 329 | 0.0 | 0.0 | 0.00 | 0.00 | 0.00 | 75 | 1014.3 |
| 20260508041150 | 47 | 329 | 0.0 | 0.0 | 0.00 | 0.00 | 0.00 | 80 | 1014.4 |
| 20260508040647 | 48 | 328 | 0.0 | 0.0 | 0.00 | 0.00 | 0.00 | 78 | 1014.5 |
| 20260508040144 | 48 | 328 | 0.0 | 0.0 | 0.00 | 0.00 | 0.00 | 75 | 1014.7 |
| 20260508035642 | 48 | 328 | 0.0 | 0.0 | 0.00 | 0.00 | 0.00 | 71 | 1015.0 |
| 20260508035139 | 48 | 328 | 0.0 | 0.0 | 0.00 | 0.00 | 0.00 | 71 | 1014.7 |
| 20260508034636 | 48 | 328 | 0.0 | 0.0 | 0.00 | 0.00 | 0.00 | 74 | 1014.9 |
| 20260508034133 | 48 | 328 | 0.0 | 0.0 | 0.00 | 0.00 | 0.00 | 71 | 1014.9 |
| 20260508033630 | 48 | 328 | 0.0 | 0.0 | 0.00 | 0.00 | 0.00 | 70 | 1014.9 |
| 20260508033128 | 49 | 328 | 0.0 | 0.0 | 0.00 | 0.00 | 0.00 | 68 | 1014.9 |
| 20260508032624 | 48 | 328 | 0.0 | 0.0 | 0.00 | 0.00 | 0.00 | 67 | 1014.9 |
| 20260508032122 | 49 | 328 | 0.0 | 0.0 | 0.00 | 0.00 | 0.00 | 68 | 1014.7 |
| 20260508031619 | 49 | 328 | 0.0 | 0.0 | 0.00 | 0.00 | 0.00 | 67 | 1014.9 |
| 20260508031115 | 49 | 328 | 0.0 | 0.0 | 0.00 | 0.00 | 0.00 | 67 | 1014.9 |
| 20260508030611 | 49 | 293 | 0.0 | 0.9 | 0.00 | 0.00 | 0.00 | 65 | 1015.1 |
| 20260508030110 | 50 | 293 | 0.9 | 0.9 | 0.00 | 0.00 | 0.00 | 63 | 1015.1 |
| 20260508025605 | 50 | 297 | 0.9 | 0.9 | 0.00 | 0.00 | 0.00 | 63 | 1014.9 |
| 20260508025103 | 50 | 328 | 0.0 | 0.0 | 0.00 | 0.00 | 0.00 | 61 | 1015.0 |
| 20260508024558 | 50 | 297 | 0.0 | 0.9 | 0.00 | 0.00 | 0.00 | 62 | 1015.2 |
| 20260508024056 | 50 | 293 | 0.0 | 0.0 | 0.00 | 0.00 | 0.00 | 62 | 1015.0 |
| 20260508023552 | 50 | 293 | 0.0 | 0.9 | 0.00 | 0.00 | 0.00 | 62 | 1015.0 |
| 20260508023050 | 50 | 309 | 0.9 | 0.9 | 0.00 | 0.00 | 0.00 | 61 | 1015.0 |
| 20260508022545 | 50 | 3 | 0.0 | 0.0 | 0.00 | 0.00 | 0.00 | 58 | 1015.0 |
| 20260508022043 | 49 | 265 | 1.7 | 1.7 | 0.00 | 0.00 | 0.00 | 61 | 1014.9 |
| 20260508021538 | 49 | 321 | 0.0 | 0.0 | 0.00 | 0.00 | 0.00 | 62 | 1014.9 |
| 20260508021034 | 48 | 255 | 0.0 | 0.0 | 0.00 | 0.00 | 0.00 | 61 | 1014.7 |
| 20260508020532 | 47 | 266 | 0.0 | 0.0 | 0.00 | 0.00 | 0.00 | 69 | 1014.8 |
| 20260508020030 | 47 | 267 | 0.0 | 0.0 | 0.00 | 0.00 | 0.00 | 71 | 1014.7 |
| 20260508015527 | 47 | 267 | 0.0 | 0.0 | 0.00 | 0.00 | 0.00 | 72 | 1014.6 |
| 20260508015024 | 47 | 267 | 0.0 | 0.0 | 0.00 | 0.00 | 0.00 | 73 | 1014.5 |
| 20260508014520 | 46 | 266 | 0.0 | 0.0 | 0.00 | 0.00 | 0.00 | 71 | 1014.6 |
| 20260508014016 | 47 | 266 | 0.0 | 0.0 | 0.00 | 0.00 | 0.00 | 71 | 1014.2 |
| 20260508013512 | 46 | 266 | 0.0 | 0.0 | 0.00 | 0.00 | 0.00 | 64 | 1014.5 |
| 20260508013010 | 46 | 266 | 0.0 | 0.0 | 0.00 | 0.00 | 0.00 | 64 | 1014.3 |
| 20260508012507 | 46 | 266 | 0.0 | 0.0 | 0.00 | 0.00 | 0.00 | 63 | 1014.3 |
| 20260508012004 | 46 | 266 | 0.0 | 0.0 | 0.00 | 0.00 | 0.00 | 66 | 1014.3 |
| 20260508011502 | 47 | 266 | 0.0 | 0.0 | 0.00 | 0.00 | 0.00 | 62 | 1014.1 |
| 20260508010959 | 47 | 266 | 0.0 | 0.0 | 0.00 | 0.00 | 0.00 | 59 | 1014.2 |
| 20260508010456 | 47 | 266 | 0.0 | 0.0 | 0.00 | 0.00 | 0.00 | 58 | 1014.1 |
| 20260508005953 | 48 | 266 | 0.0 | 0.0 | 0.00 | 0.00 | 0.00 | 58 | 1014.1 |
| 20260508005450 | 48 | 266 | 0.0 | 0.0 | 0.00 | 0.00 | 0.00 | 57 | 1014.1 |
| 20260508004947 | 48 | 266 | 0.0 | 0.0 | 0.00 | 0.00 | 0.00 | 56 | 1014.2 |
| 20260508004443 | 49 | 266 | 0.0 | 0.0 | 0.00 | 0.00 | 0.00 | 57 | 1014.0 |
| 20260508003939 | 49 | 266 | 0.0 | 0.0 | 0.00 | 0.00 | 0.00 | 57 | 1014.1 |
| 20260508003431 | 50 | 266 | 0.0 | 0.0 | 0.00 | 0.00 | 0.00 | 57 | 1013.9 |
| 20260508002928 | 50 | 266 | 0.0 | 0.0 | 0.00 | 0.00 | 0.00 | 50 | 1013.9 |
| 20260508002425 | 51 | 266 | 0.0 | 0.0 | 0.00 | 0.00 | 0.00 | 52 | 1014.0 |
| 20260508001921 | 51 | 266 | 0.0 | 0.0 | 0.00 | 0.00 | 0.00 | 50 | 1013.9 |
| 20260508001418 | 51 | 266 | 0.0 | 0.0 | 0.00 | 0.00 | 0.00 | 53 | 1013.8 |
| 20260508000914 | 52 | 266 | 0.0 | 0.0 | 0.00 | 0.00 | 0.00 | 53 | 1013.7 |
| 20260508000412 | 52 | 266 | 0.0 | 0.0 | 0.00 | 0.00 | 0.00 | 49 | 1013.8 |
| 20260507235907 | 53 | 266 | 0.0 | 0.0 | 0.00 | 0.00 | 0.00 | 50 | 1013.7 |
| 20260507235404 | 53 | 293 | 0.0 | 0.0 | 0.00 | 0.00 | 0.00 | 47 | 1013.8 |
| 20260507234901 | 53 | 55 | 0.0 | 0.9 | 0.00 | 0.00 | 0.00 | 46 | 1013.6 |
| 20260507234359 | 53 | 303 | 0.0 | 0.9 | 0.00 | 0.00 | 0.00 | 50 | 1013.7 |
| 20260507233854 | 53 | 321 | 0.0 | 0.0 | 0.00 | 0.00 | 0.00 | 48 | 1013.7 |
| 20260507233351 | 54 | 323 | 1.7 | 1.7 | 0.00 | 0.00 | 0.00 | 43 | 1013.6 |
| 20260507232850 | 55 | 321 | 0.9 | 0.9 | 0.00 | 0.00 | 0.00 | 47 | 1013.8 |
| 20260507232346 | 55 | 326 | 0.0 | 0.0 | 0.00 | 0.00 | 0.00 | 45 | 1013.6 |
| 20260507231843 | 55 | 286 | 0.9 | 0.9 | 0.00 | 0.00 | 0.00 | 45 | 1013.8 |
| 20260507231334 | 54 | 324 | 0.0 | 0.9 | 0.00 | 0.00 | 0.00 | 46 | 1013.6 |
| 20260507230830 | 54 | 290 | 0.0 | 0.9 | 0.00 | 0.00 | 0.00 | 44 | 1013.7 |
| 20260507230328 | 55 | 279 | 0.9 | 2.6 | 0.00 | 0.00 | 0.00 | 45 | 1013.8 |
| 20260507225827 | 55 | 351 | 0.9 | 0.9 | 0.00 | 0.00 | 0.00 | 44 | 1013.6 |
| 20260507225324 | 55 | 280 | 2.6 | 2.6 | 0.00 | 0.00 | 0.00 | 44 | 1013.7 |
| 20260507224820 | 55 | 350 | 0.0 | 0.9 | 0.00 | 0.00 | 0.00 | 42 | 1013.8 |
| 20260507224317 | 55 | 263 | 0.9 | 0.9 | 0.00 | 0.00 | 0.00 | 43 | 1013.7 |
| 20260507223813 | 55 | 288 | 0.0 | 0.9 | 0.00 | 0.00 | 0.00 | 40 | 1013.7 |
| 20260507223309 | 56 | 329 | 0.9 | 1.7 | 0.00 | 0.00 | 0.00 | 43 | 1013.8 |
| 20260507222807 | 56 | 297 | 0.9 | 0.9 | 0.00 | 0.00 | 0.00 | 40 | 1013.8 |
| 20260507222306 | 57 | 282 | 0.0 | 0.9 | 0.00 | 0.00 | 0.00 | 40 | 1013.6 |
| 20260507221800 | 56 | 289 | 1.7 | 2.6 | 0.00 | 0.00 | 0.00 | 43 | 1013.6 |
| 20260507221256 | 57 | 292 | 0.0 | 0.9 | 0.00 | 0.00 | 0.00 | 41 | 1013.8 |
| 20260507220752 | 56 | 293 | 1.7 | 1.7 | 0.00 | 0.00 | 0.00 | 42 | 1014.0 |
| 20260507220251 | 56 | 251 | 1.7 | 1.7 | 0.00 | 0.00 | 0.00 | 40 | 1013.8 |
| 20260507215747 | 56 | 300 | 1.7 | 1.7 | 0.00 | 0.00 | 0.00 | 44 | 1013.6 |
| 20260507215244 | 57 | 303 | 1.7 | 1.7 | 0.00 | 0.00 | 0.00 | 43 | 1013.5 |
| 20260507214741 | 57 | 304 | 0.9 | 0.9 | 0.00 | 0.00 | 0.00 | 43 | 1013.6 |
| 20260507214239 | 57 | 296 | 1.7 | 2.6 | 0.00 | 0.00 | 0.00 | 43 | 1013.7 |
| 20260507213733 | 58 | 265 | 1.7 | 3.5 | 0.00 | 0.00 | 0.00 | 42 | 1013.6 |
| 20260507213231 | 58 | 279 | 1.7 | 3.5 | 0.00 | 0.00 | 0.00 | 40 | 1013.6 |
| 20260507212727 | 57 | 271 | 1.7 | 1.7 | 0.00 | 0.00 | 0.00 | 41 | 1013.7 |
| 20260507212224 | 55 | 295 | 1.7 | 2.6 | 0.00 | 0.00 | 0.00 | 45 | 1013.5 |
| 20260507211721 | 56 | 329 | 0.9 | 1.7 | 0.00 | 0.00 | 0.00 | 43 | 1013.5 |
| 20260507211216 | 56 | 323 | 2.6 | 3.5 | 0.00 | 0.00 | 0.00 | 44 | 1013.3 |
| 20260507210714 | 57 | 305 | 0.9 | 0.9 | 0.00 | 0.00 | 0.00 | 42 | 1013.3 |
| 20260507210211 | 58 | 219 | 0.9 | 1.7 | 0.00 | 0.00 | 0.00 | 40 | 1013.5 |
| 20260507205707 | 57 | 276 | 0.9 | 1.7 | 0.00 | 0.00 | 0.00 | 40 | 1013.3 |
| 20260507205204 | 57 | 276 | 1.7 | 1.7 | 0.00 | 0.00 | 0.00 | 41 | 1013.3 |
| 20260507204700 | 57 | 317 | 0.9 | 1.7 | 0.00 | 0.00 | 0.00 | 43 | 1013.2 |
| 20260507204158 | 58 | 310 | 2.6 | 2.6 | 0.00 | 0.00 | 0.00 | 44 | 1013.4 |
| 20260507203656 | 58 | 254 | 2.6 | 3.5 | 0.00 | 0.00 | 0.00 | 45 | 1013.3 |
| 20260507203153 | 57 | 284 | 0.9 | 2.6 | 0.00 | 0.00 | 0.00 | 49 | 1013.2 |
| 20260507202648 | 57 | 285 | 1.7 | 1.7 | 0.00 | 0.00 | 0.00 | 49 | 1013.3 |
| 20260507202144 | 57 | 354 | 0.0 | 0.0 | 0.00 | 0.00 | 0.00 | 45 | 1012.9 |
| 20260507201640 | 58 | 145 | 2.6 | 3.5 | 0.00 | 0.00 | 0.00 | 42 | 1013.3 |
| 20260507201137 | 56 | 283 | 1.7 | 2.6 | 0.00 | 0.00 | 0.00 | 46 | 1013.3 |
| 20260507200633 | 57 | 227 | 3.5 | 5.2 | 0.00 | 0.00 | 0.00 | 46 | 1013.2 |
| 20260507200129 | 56 | 233 | 1.7 | 2.6 | 0.00 | 0.00 | 0.00 | 45 | 1013.3 |
| 20260507195626 | 56 | 302 | 0.9 | 1.7 | 0.00 | 0.00 | 0.00 | 48 | 1013.4 |
| 20260507195123 | 56 | 32 | 1.7 | 2.6 | 0.00 | 0.00 | 0.00 | 47 | 1013.3 |
| 20260507194620 | 56 | 298 | 1.7 | 1.7 | 0.00 | 0.00 | 0.00 | 50 | 1013.3 |
| 20260507194115 | 55 | 259 | 1.7 | 1.7 | 0.00 | 0.00 | 0.00 | 48 | 1013.6 |
| 20260507193613 | 55 | 202 | 2.6 | 3.5 | 0.00 | 0.00 | 0.00 | 49 | 1013.5 |
| 20260507193110 | 54 | 297 | 1.7 | 2.6 | 0.00 | 0.00 | 0.00 | 52 | 1013.5 |
| 20260507192606 | 57 | 276 | 2.6 | 3.5 | 0.00 | 0.00 | 0.00 | 46 | 1013.6 |
| 20260507192103 | 56 | 313 | 3.5 | 5.2 | 0.00 | 0.00 | 0.00 | 49 | 1013.4 |
| 20260507191558 | 55 | 358 | 0.9 | 1.7 | 0.00 | 0.00 | 0.00 | 49 | 1013.6 |
| 20260507191056 | 56 | 289 | 2.6 | 3.5 | 0.00 | 0.00 | 0.00 | 48 | 1013.5 |
| 20260507190553 | 56 | 301 | 0.0 | 0.9 | 0.00 | 0.00 | 0.00 | 50 | 1013.6 |
| 20260507190051 | 57 | 291 | 1.7 | 2.6 | 0.00 | 0.00 | 0.00 | 46 | 1013.7 |
| 20260507185549 | 56 | 314 | 1.7 | 2.6 | 0.00 | 0.00 | 0.00 | 48 | 1013.7 |
| 20260507185046 | 56 | 78 | 0.9 | 1.7 | 0.00 | 0.00 | 0.00 | 47 | 1013.6 |
| 20260507184544 | 55 | 286 | 1.7 | 1.7 | 0.00 | 0.00 | 0.00 | 51 | 1013.7 |
| 20260507184042 | 56 | 299 | 0.0 | 0.9 | 0.00 | 0.00 | 0.00 | 48 | 1013.6 |
| 20260507183537 | 55 | 328 | 1.7 | 2.6 | 0.00 | 0.00 | 0.00 | 46 | 1013.5 |
| 20260507183034 | 56 | 290 | 0.0 | 0.9 | 0.00 | 0.00 | 0.00 | 45 | 1013.8 |
| 20260507182531 | 55 | 291 | 0.0 | 0.0 | 0.00 | 0.00 | 0.00 | 52 | 1013.6 |
| 20260507182027 | 56 | 309 | 3.5 | 3.5 | 0.00 | 0.00 | 0.00 | 50 | 1013.7 |
| 20260507181524 | 57 | 34 | 0.9 | 2.6 | 0.00 | 0.00 | 0.00 | 52 | 1013.7 |
| 20260507181020 | 57 | 325 | 0.0 | 0.9 | 0.00 | 0.00 | 0.00 | 46 | 1013.7 |
| 20260507180516 | 56 | 286 | 1.7 | 1.7 | 0.00 | 0.00 | 0.00 | 48 | 1013.9 |
| 20260507180014 | 57 | 254 | 0.9 | 1.7 | 0.00 | 0.00 | 0.00 | 47 | 1013.8 |
| 20260507175510 | 56 | 326 | 0.0 | 0.9 | 0.00 | 0.00 | 0.00 | 48 | 1013.8 |
| 20260507175007 | 57 | 105 | 2.6 | 2.6 | 0.00 | 0.00 | 0.00 | 47 | 1014.0 |
| 20260507174504 | 55 | 284 | 5.2 | 7.0 | 0.00 | 0.00 | 0.00 | 48 | 1014.0 |
| 20260507174002 | 55 | 225 | 2.6 | 2.6 | 0.00 | 0.00 | 0.00 | 50 | 1013.8 |
| 20260507173459 | 55 | 222 | 1.7 | 1.7 | 0.00 | 0.00 | 0.00 | 49 | 1014.0 |
| 20260507172956 | 56 | 224 | 3.5 | 5.2 | 0.00 | 0.00 | 0.00 | 46 | 1014.1 |
| 20260507172452 | 57 | 309 | 0.0 | 0.0 | 0.00 | 0.00 | 0.00 | 47 | 1014.1 |
| 20260507171949 | 57 | 296 | 1.7 | 1.7 | 0.00 | 0.00 | 0.00 | 46 | 1013.9 |
| 20260507171444 | 56 | 228 | 1.7 | 1.7 | 0.00 | 0.00 | 0.00 | 48 | 1014.0 |
| 20260507170942 | 56 | 257 | 1.7 | 2.6 | 0.00 | 0.00 | 0.00 | 48 | 1014.0 |
| 20260507170438 | 56 | 4 | 0.9 | 1.7 | 0.00 | 0.00 | 0.00 | 48 | 1014.0 |
| 20260507165935 | 54 | 207 | 3.5 | 3.5 | 0.00 | 0.00 | 0.00 | 49 | 1014.0 |
| 20260507165431 | 56 | 216 | 2.6 | 3.5 | 0.00 | 0.00 | 0.00 | 49 | 1014.0 |
| 20260507164926 | 55 | 267 | 1.7 | 2.6 | 0.00 | 0.00 | 0.00 | 51 | 1014.0 |
| 20260507164424 | 54 | 303 | 1.7 | 2.6 | 0.00 | 0.00 | 0.00 | 51 | 1014.0 |
| 20260507163921 | 55 | 296 | 0.0 | 0.0 | 0.00 | 0.00 | 0.00 | 51 | 1013.9 |
| 20260507163418 | 55 | 243 | 1.7 | 1.7 | 0.00 | 0.00 | 0.00 | 50 | 1014.1 |
| 20260507162915 | 54 | 286 | 0.9 | 0.9 | 0.00 | 0.00 | 0.00 | 52 | 1013.8 |
| 20260507162410 | 54 | 211 | 1.7 | 3.5 | 0.00 | 0.00 | 0.00 | 55 | 1014.0 |
| 20260507161908 | 55 | 284 | 0.9 | 0.9 | 0.00 | 0.00 | 0.00 | 47 | 1014.2 |
| 20260507161404 | 55 | 251 | 2.6 | 2.6 | 0.00 | 0.00 | 0.00 | 52 | 1014.0 |
| 20260507160901 | 55 | 290 | 1.7 | 1.7 | 0.00 | 0.00 | 0.00 | 47 | 1014.1 |
| 20260507160356 | 54 | 264 | 1.7 | 1.7 | 0.00 | 0.00 | 0.00 | 48 | 1013.9 |
| 20260507155853 | 55 | 303 | 1.7 | 1.7 | 0.00 | 0.00 | 0.00 | 46 | 1014.1 |
| 20260507155349 | 55 | 15 | 0.0 | 0.0 | 0.00 | 0.00 | 0.00 | 49 | 1013.9 |
| 20260507154845 | 54 | 318 | 3.5 | 5.2 | 0.00 | 0.00 | 0.00 | 49 | 1013.9 |
| 20260507154343 | 55 | 332 | 2.6 | 3.5 | 0.00 | 0.00 | 0.00 | 47 | 1013.9 |
| 20260507153840 | 55 | 242 | 2.6 | 3.5 | 0.00 | 0.00 | 0.00 | 46 | 1014.0 |
| 20260507153336 | 55 | 279 | 1.7 | 1.7 | 0.00 | 0.00 | 0.00 | 55 | 1014.1 |
| 20260507152833 | 55 | 192 | 1.7 | 2.6 | 0.00 | 0.00 | 0.00 | 49 | 1014.0 |
| 20260507152329 | 55 | 293 | 1.7 | 1.7 | 0.00 | 0.00 | 0.00 | 48 | 1014.1 |
| 20260507151825 | 55 | 289 | 1.7 | 3.5 | 0.00 | 0.00 | 0.00 | 47 | 1013.9 |
| 20260507151321 | 55 | 354 | 0.0 | 0.0 | 0.00 | 0.00 | 0.00 | 50 | 1014.0 |
| 20260507150819 | 55 | 312 | 0.9 | 1.7 | 0.00 | 0.00 | 0.00 | 54 | 1014.0 |
| 20260507150315 | 54 | 217 | 0.9 | 1.7 | 0.00 | 0.00 | 0.00 | 51 | 1014.2 |
| 20260507145811 | 53 | 297 | 0.0 | 0.9 | 0.00 | 0.00 | 0.00 | 56 | 1014.2 |
| 20260507145307 | 53 | 31 | 0.9 | 1.7 | 0.00 | 0.00 | 0.00 | 59 | 1014.3 |
| 20260507144804 | 53 | 235 | 2.6 | 2.6 | 0.00 | 0.00 | 0.00 | 60 | 1014.2 |
| 20260507144302 | 52 | 283 | 0.9 | 1.7 | 0.00 | 0.00 | 0.00 | 64 | 1014.0 |
| 20260507143758 | 53 | 260 | 1.7 | 3.5 | 0.00 | 0.00 | 0.00 | 59 | 1014.1 |
| 20260507143256 | 52 | 301 | 0.9 | 1.7 | 0.00 | 0.00 | 0.00 | 62 | 1014.1 |
| 20260507142751 | 53 | 313 | 0.0 | 0.0 | 0.00 | 0.00 | 0.00 | 66 | 1014.1 |
| 20260507142248 | 52 | 263 | 0.0 | 0.0 | 0.00 | 0.00 | 0.00 | 70 | 1014.1 |
| 20260507141744 | 51 | 277 | 0.0 | 0.0 | 0.00 | 0.00 | 0.00 | 66 | 1014.0 |
| 20260507141241 | 51 | 232 | 1.7 | 1.7 | 0.00 | 0.00 | 0.00 | 66 | 1014.2 |
| 20260507140737 | 51 | 307 | 0.0 | 0.9 | 0.00 | 0.00 | 0.00 | 64 | 1014.3 |
| 20260507140235 | 51 | 354 | 0.0 | 0.0 | 0.00 | 0.00 | 0.00 | 67 | 1014.3 |
| 20260507135733 | 51 | 275 | 0.9 | 0.9 | 0.00 | 0.00 | 0.00 | 65 | 1014.3 |
| 20260507135230 | 51 | 305 | 1.7 | 1.7 | 0.00 | 0.00 | 0.00 | 69 | 1014.4 |
| 20260507134726 | 50 | 306 | 0.9 | 0.9 | 0.00 | 0.00 | 0.00 | 69 | 1014.4 |
| 20260507134222 | 49 | 256 | 0.0 | 0.0 | 0.00 | 0.00 | 0.00 | 72 | 1014.5 |
| 20260507133718 | 48 | 306 | 0.0 | 0.0 | 0.00 | 0.00 | 0.00 | 73 | 1014.6 |
| 20260507133215 | 48 | 234 | 0.9 | 1.7 | 0.00 | 0.00 | 0.00 | 72 | 1014.6 |
| 20260507132712 | 48 | 253 | 0.0 | 0.9 | 0.00 | 0.00 | 0.00 | 76 | 1014.6 |
| 20260507132208 | 48 | 280 | 0.0 | 0.0 | 0.00 | 0.00 | 0.00 | 77 | 1014.6 |
| 20260507131706 | 47 | 307 | 0.9 | 0.9 | 0.00 | 0.00 | 0.00 | 75 | 1014.6 |
| 20260507131203 | 47 | 295 | 0.9 | 0.9 | 0.00 | 0.00 | 0.00 | 76 | 1014.5 |
| 20260507130659 | 47 | 290 | 0.0 | 0.9 | 0.00 | 0.00 | 0.00 | 77 | 1014.5 |
| 20260507130157 | 46 | 292 | 0.0 | 0.0 | 0.00 | 0.00 | 0.00 | 78 | 1014.5 |
| 20260507125656 | 46 | 196 | 1.7 | 2.6 | 0.00 | 0.00 | 0.00 | 79 | 1014.6 |
| 20260507125154 | 46 | 283 | 0.9 | 1.7 | 0.00 | 0.00 | 0.00 | 80 | 1014.5 |
| 20260507124650 | 46 | 296 | 0.0 | 0.0 | 0.00 | 0.00 | 0.00 | 78 | 1014.7 |
| 20260507124148 | 46 | 266 | 0.0 | 0.9 | 0.00 | 0.00 | 0.00 | 79 | 1014.5 |
| 20260507123646 | 46 | 238 | 0.9 | 0.9 | 0.00 | 0.00 | 0.00 | 80 | 1014.4 |
| 20260507123142 | 45 | 211 | 1.7 | 1.7 | 0.00 | 0.00 | 0.00 | 80 | 1014.5 |
| 20260507122637 | 45 | 347 | 1.7 | 2.6 | 0.00 | 0.00 | 0.00 | 83 | 1014.4 |
| 20260507122133 | 45 | 344 | 0.0 | 0.0 | 0.00 | 0.00 | 0.00 | 86 | 1014.4 |
| 20260507121630 | 44 | 332 | 0.0 | 0.0 | 0.00 | 0.00 | 0.00 | 87 | 1014.7 |
| 20260507121126 | 43 | 320 | 0.0 | 0.0 | 0.00 | 0.00 | 0.00 | 92 | 1014.3 |
| 20260507120622 | 42 | 319 | 0.0 | 0.0 | 0.00 | 0.00 | 0.00 | 98 | 1014.4 |
| 20260507120119 | 41 | 333 | 0.0 | 0.0 | 0.00 | 0.00 | 0.00 | 99 | 1014.0 |